createdAt,value
2022-10-31T00:01:39.359Z,40.22
2022-10-31T00:04:07.249Z,35.58
2022-10-31T00:06:34.685Z,42.60
2022-10-31T00:09:05.138Z,79.60
2022-10-31T00:11:32.876Z,65.07
2022-10-31T00:14:00.748Z,52.97
2022-10-31T00:16:29.593Z,39.97
2022-10-31T00:19:02.553Z,14.40
2022-10-31T00:21:31.344Z,16.10
2022-10-31T00:24:00.136Z,16.52
2022-10-31T00:26:32.788Z,18.00
2022-10-31T00:29:01.328Z,15.68
2022-10-31T00:31:29.406Z,11.95
2022-10-31T00:33:57.124Z,13.70
2022-10-31T00:36:24.434Z,13.60
2022-10-31T00:38:52.079Z,13.85
2022-10-31T00:41:19.757Z,25.92
2022-10-31T00:43:47.515Z,12.57
2022-10-31T00:46:15.551Z,11.13
2022-10-31T00:48:43.760Z,15.25
2022-10-31T00:51:11.499Z,10.98
2022-10-31T00:53:38.913Z,10.35
2022-10-31T00:56:06.597Z,10.02
2022-10-31T00:58:34.073Z,9.18
2022-10-31T01:01:01.595Z,9.75
2022-10-31T01:03:31.521Z,11.10
2022-10-31T01:06:00.793Z,14.10
2022-10-31T01:08:28.655Z,17.17
2022-10-31T01:11:11.349Z,15.05
2022-10-31T01:13:38.732Z,16.27
2022-10-31T01:16:08.194Z,21.35
2022-10-31T01:18:37.211Z,14.45
2022-10-31T01:21:11.835Z,13.57
2022-10-31T01:23:39.692Z,12.90
2022-10-31T01:26:17.826Z,17.50
2022-10-31T01:29:01.718Z,13.45
2022-10-31T01:31:32.002Z,13.32
2022-10-31T01:34:00.150Z,12.93
2022-10-31T01:36:35.773Z,14.57
2022-10-31T01:39:06.747Z,17.95
2022-10-31T01:41:36.394Z,16.27
2022-10-31T01:44:15.866Z,13.02
2022-10-31T01:46:50.016Z,19.08
2022-10-31T01:49:32.753Z,17.55
2022-10-31T01:52:07.714Z,14.65
2022-10-31T01:54:41.246Z,23.08
2022-10-31T01:57:11.842Z,22.60
2022-10-31T01:59:46.537Z,22.80
2022-10-31T02:02:16.617Z,11.18
2022-10-31T02:04:45.009Z,16.02
2022-10-31T02:07:16.115Z,19.13
2022-10-31T02:09:46.684Z,26.73
2022-10-31T02:12:14.712Z,15.82
2022-10-31T02:14:42.801Z,24.85
2022-10-31T02:17:10.605Z,17.15
2022-10-31T02:20:03.482Z,20.80
2022-10-31T02:22:56.154Z,15.13
2022-10-31T02:25:41.821Z,147.70
2022-10-31T02:28:50.298Z,31.15
2022-10-31T02:31:46.770Z,16.38
2022-10-31T02:34:22.355Z,17.38
2022-10-31T02:37:02.692Z,13.20
2022-10-31T02:39:46.955Z,15.82
2022-10-31T02:42:29.189Z,31.08
2022-10-31T02:45:25.827Z,41.13
2022-10-31T02:47:57.249Z,36.50
2022-10-31T02:50:35.853Z,27.42
2022-10-31T02:53:04.291Z,22.88
2022-10-31T02:55:31.828Z,30.38
2022-10-31T02:58:03.312Z,31.42
2022-10-31T03:00:44.864Z,31.08
2022-10-31T03:03:42.705Z,31.73
2022-10-31T03:06:21.782Z,37.72
2022-10-31T03:09:11.156Z,30.88
2022-10-31T03:11:51.659Z,34.25
2022-10-31T03:14:49.533Z,47.95
2022-10-31T03:17:35.115Z,40.83
2022-10-31T03:20:05.386Z,33.42
2022-10-31T03:22:34.333Z,39.55
2022-10-31T03:25:04.595Z,38.95
2022-10-31T03:27:36.043Z,38.35
2022-10-31T03:30:06.665Z,37.35
2022-10-31T03:32:39.603Z,43.25
2022-10-31T03:35:09.630Z,40.88
2022-10-31T03:37:39.572Z,38.60
2022-10-31T03:40:10.894Z,35.70
2022-10-31T03:42:42.980Z,37.53
2022-10-31T03:45:13.722Z,40.42
2022-10-31T03:47:42.486Z,38.17
2022-10-31T03:50:11.864Z,40.40
2022-10-31T03:52:49.190Z,47.47
2022-10-31T03:55:34.641Z,52.13
2022-10-31T03:58:09.337Z,41.88
2022-10-31T04:00:40.443Z,55.15
2022-10-31T04:03:15.814Z,46.63
2022-10-31T04:08:17.987Z,53.83
2022-10-31T04:10:48.615Z,64.03
2022-10-31T04:13:21.084Z,62.83
2022-10-31T04:15:50.808Z,56.42
2022-10-31T04:18:18.497Z,64.15
2022-10-31T04:20:45.700Z,89.82
2022-10-31T04:23:20.896Z,50.75
2022-10-31T04:25:48.032Z,56.90
2022-10-31T04:28:15.538Z,52.95
2022-10-31T04:30:42.980Z,52.63
2022-10-31T04:33:12.454Z,50.75
2022-10-31T04:35:39.883Z,55.17
2022-10-31T04:38:07.024Z,62.13
2022-10-31T04:40:34.505Z,60.78
2022-10-31T04:43:02.173Z,47.63
2022-10-31T04:45:29.563Z,63.83
2022-10-31T04:47:58.250Z,62.38
2022-10-31T04:50:25.676Z,50.92
2022-10-31T04:52:52.884Z,52.53
2022-10-31T04:55:20.111Z,63.90
2022-10-31T04:57:50.344Z,56.25
2022-10-31T05:00:20.274Z,60.63
2022-10-31T05:02:55.678Z,55.67
2022-10-31T05:07:52.072Z,59.10
2022-10-31T05:10:23.118Z,49.08
2022-10-31T05:12:55.560Z,47.10
2022-10-31T05:15:25.172Z,50.53
2022-10-31T05:17:53.185Z,56.42
2022-10-31T05:20:23.097Z,58.83
2022-10-31T05:22:52.978Z,54.97
2022-10-31T05:25:21.774Z,54.15
2022-10-31T05:27:50.973Z,60.83
2022-10-31T05:30:21.637Z,71.22
2022-10-31T05:32:50.378Z,63.35
2022-10-31T05:35:22.938Z,61.15
2022-10-31T05:37:51.209Z,73.18
2022-10-31T05:40:20.391Z,55.42
2022-10-31T05:42:48.688Z,67.68
2022-10-31T05:45:17.477Z,62.35
2022-10-31T05:47:55.271Z,64.40
2022-10-31T05:50:23.501Z,64.93
2022-10-31T05:53:05.659Z,65.82
2022-10-31T05:55:33.502Z,89.80
2022-10-31T05:58:01.057Z,93.93
2022-10-31T06:00:29.385Z,113.18
2022-10-31T06:03:04.830Z,118.22
2022-10-31T06:05:32.321Z,104.28
2022-10-31T06:08:00.261Z,104.93
2022-10-31T06:10:28.986Z,109.88
2022-10-31T06:12:56.821Z,120.88
2022-10-31T06:15:24.918Z,115.95
2022-10-31T06:18:07.074Z,119.78
2022-10-31T06:20:35.227Z,117.28
2022-10-31T06:23:03.474Z,121.45
2022-10-31T06:25:31.213Z,113.05
2022-10-31T06:27:58.605Z,103.88
2022-10-31T06:30:26.895Z,131.52
2022-10-31T06:32:54.193Z,149.00
2022-10-31T06:35:21.644Z,132.40
2022-10-31T06:37:55.864Z,127.35
2022-10-31T06:40:23.495Z,130.82
2022-10-31T06:43:03.626Z,125.07
2022-10-31T06:45:31.578Z,133.70
2022-10-31T06:50:46.628Z,135.40
2022-10-31T06:53:15.490Z,152.27
2022-10-31T06:55:43.586Z,121.95
2022-10-31T06:58:12.097Z,125.45
2022-10-31T07:00:39.903Z,140.18
2022-10-31T07:03:11.629Z,167.65
2022-10-31T07:05:38.870Z,129.13
2022-10-31T07:08:09.852Z,128.38
2022-10-31T07:10:40.374Z,156.02
2022-10-31T07:13:14.368Z,118.93
2022-10-31T07:15:43.554Z,100.00
2022-10-31T07:18:12.963Z,142.05
2022-10-31T07:20:40.462Z,148.10
2022-10-31T07:23:07.836Z,144.20
2022-10-31T07:25:34.997Z,115.25
2022-10-31T07:28:02.852Z,130.02
2022-10-31T07:30:30.476Z,103.53
2022-10-31T07:32:57.820Z,124.22
2022-10-31T07:35:27.673Z,162.88
2022-10-31T07:37:55.864Z,138.20
2022-10-31T07:40:24.294Z,143.90
2022-10-31T07:42:52.871Z,159.05
2022-10-31T07:45:22.648Z,130.52
2022-10-31T07:47:52.622Z,145.80
2022-10-31T07:50:22.666Z,136.75
2022-10-31T07:52:58.848Z,139.32
2022-10-31T07:55:25.991Z,151.43
2022-10-31T07:58:07.254Z,140.55
2022-10-31T08:00:36.593Z,137.73
2022-10-31T08:03:07.387Z,136.85
2022-10-31T08:05:35.265Z,145.23
2022-10-31T08:08:03.508Z,147.98
2022-10-31T08:10:31.299Z,147.02
2022-10-31T08:13:03.181Z,135.57
2022-10-31T08:15:30.784Z,132.50
2022-10-31T08:17:58.836Z,140.50
2022-10-31T08:20:26.566Z,138.13
2022-10-31T08:23:02.143Z,142.85
2022-10-31T08:25:35.338Z,144.27
2022-10-31T08:28:07.730Z,135.88
2022-10-31T08:30:36.998Z,140.98
2022-10-31T08:33:13.368Z,142.60
2022-10-31T08:35:40.936Z,138.65
2022-10-31T08:38:10.959Z,149.35
2022-10-31T08:40:39.007Z,143.95
2022-10-31T08:43:08.562Z,126.75
2022-10-31T08:45:36.459Z,132.15
2022-10-31T08:48:06.470Z,121.40
2022-10-31T08:50:36.101Z,109.30
2022-10-31T08:53:07.626Z,111.00
2022-10-31T08:55:36.884Z,92.68
2022-10-31T08:58:06.624Z,98.60
2022-10-31T09:00:35.407Z,108.30
2022-10-31T09:03:06.579Z,160.23
2022-10-31T09:05:35.673Z,159.43
2022-10-31T09:08:04.900Z,146.35
2022-10-31T09:10:33.935Z,122.25
2022-10-31T09:13:10.384Z,98.22
2022-10-31T09:15:43.206Z,131.95
2022-10-31T09:18:11.998Z,132.55
2022-10-31T09:20:41.053Z,108.38
2022-10-31T09:23:15.357Z,121.80
2022-10-31T09:25:47.595Z,126.25
2022-10-31T09:28:20.707Z,134.00
2022-10-31T09:30:49.677Z,118.18
2022-10-31T09:33:17.998Z,179.23
2022-10-31T09:35:45.875Z,131.20
2022-10-31T09:38:20.457Z,205.65
2022-10-31T09:41:15.339Z,135.32
2022-10-31T09:43:54.827Z,117.13
2022-10-31T09:47:02.435Z,120.22
2022-10-31T09:49:38.988Z,106.88
2022-10-31T09:52:23.207Z,111.80
2022-10-31T09:55:15.114Z,101.07
2022-10-31T09:57:44.065Z,86.15
2022-10-31T10:00:22.989Z,100.03
2022-10-31T10:02:59.854Z,78.72
2022-10-31T10:05:38.348Z,96.63
2022-10-31T10:08:14.235Z,83.57
2022-10-31T10:10:48.789Z,92.93
2022-10-31T10:13:51.395Z,88.17
2022-10-31T10:16:27.630Z,86.22
2022-10-31T10:19:11.362Z,100.50
2022-10-31T10:22:12.631Z,80.40
2022-10-31T10:24:59.505Z,78.82
2022-10-31T10:27:45.474Z,80.15
2022-10-31T10:30:19.533Z,88.10
2022-10-31T10:33:00.489Z,79.32
2022-10-31T10:35:43.158Z,78.80
2022-10-31T10:38:33.231Z,66.78
2022-10-31T10:41:04.463Z,79.45
2022-10-31T10:43:35.338Z,67.30
2022-10-31T10:46:59.461Z,68.60
2022-10-31T10:49:52.544Z,75.97
2022-10-31T10:52:50.208Z,71.47
2022-10-31T10:55:41.238Z,70.85
2022-10-31T10:58:10.400Z,82.53
2022-10-31T11:00:47.839Z,51.40
2022-10-31T11:03:17.000Z,59.13
2022-10-31T11:06:01.366Z,65.00
2022-10-31T11:08:35.088Z,63.38
2022-10-31T11:11:08.866Z,59.05
2022-10-31T11:13:37.160Z,50.75
2022-10-31T11:16:28.069Z,54.28
2022-10-31T11:19:06.429Z,45.70
2022-10-31T11:21:36.034Z,53.97
2022-10-31T11:24:12.477Z,63.63
2022-10-31T11:26:41.508Z,55.95
2022-10-31T11:29:26.295Z,58.15
2022-10-31T11:31:56.916Z,54.03
2022-10-31T11:34:51.235Z,53.05
2022-10-31T11:37:42.912Z,52.65
2022-10-31T11:40:22.807Z,57.40
2022-10-31T11:42:52.587Z,53.40
2022-10-31T11:45:22.901Z,52.38
2022-10-31T11:47:59.252Z,54.20
2022-10-31T11:50:38.175Z,47.72
2022-10-31T11:56:26.698Z,47.17
2022-10-31T11:59:05.644Z,51.25
2022-10-31T12:01:34.602Z,56.45
2022-10-31T12:04:06.010Z,50.45
2022-10-31T12:06:41.376Z,50.92
2022-10-31T12:12:09.429Z,45.72
2022-10-31T12:15:06.256Z,49.65
2022-10-31T12:18:05.226Z,44.70
2022-10-31T12:20:41.537Z,46.17
2022-10-31T12:23:34.186Z,44.65
2022-10-31T12:26:42.907Z,45.75
2022-10-31T12:29:28.725Z,50.47
2022-10-31T12:34:46.170Z,35.85
2022-10-31T12:37:37.437Z,35.88
2022-10-31T12:40:24.378Z,39.47
2022-10-31T12:43:18.290Z,37.85
2022-10-31T12:45:58.755Z,38.80
2022-10-31T12:48:44.189Z,37.03
2022-10-31T12:51:28.607Z,44.08
2022-10-31T12:54:17.347Z,41.67
2022-10-31T12:57:10.809Z,33.20
2022-10-31T12:59:53.012Z,34.22
2022-10-31T13:02:26.086Z,38.13
2022-10-31T13:04:57.262Z,39.88
2022-10-31T13:07:35.990Z,33.53
2022-10-31T13:10:16.475Z,41.35
2022-10-31T13:12:48.291Z,35.60
2022-10-31T13:15:24.641Z,35.95
2022-10-31T13:17:57.076Z,38.90
2022-10-31T13:20:34.448Z,40.80
2022-10-31T13:23:49.346Z,37.88
2022-10-31T13:26:20.394Z,44.08
2022-10-31T13:29:10.892Z,46.40
2022-10-31T13:31:42.975Z,36.97
2022-10-31T13:34:28.813Z,36.78
2022-10-31T13:39:43.781Z,36.13
2022-10-31T13:42:39.848Z,35.50
2022-10-31T13:45:16.676Z,31.63
2022-10-31T13:47:44.387Z,36.22
2022-10-31T13:50:26.383Z,35.05
2022-10-31T13:52:53.610Z,41.28
2022-10-31T13:55:46.265Z,37.65
2022-10-31T13:58:31.126Z,35.20
2022-10-31T14:01:11.594Z,33.37
2022-10-31T14:06:54.999Z,37.35
2022-10-31T14:09:35.358Z,34.13
2022-10-31T14:12:23.904Z,31.55
2022-10-31T14:14:56.032Z,30.50
2022-10-31T14:17:28.432Z,37.22
2022-10-31T14:20:22.438Z,26.45
2022-10-31T14:22:50.713Z,33.95
2022-10-31T14:25:36.514Z,30.58
2022-10-31T14:30:57.685Z,33.42
2022-10-31T14:33:28.558Z,32.70
2022-10-31T14:36:09.454Z,33.80
2022-10-31T14:38:45.449Z,35.30
2022-10-31T14:41:18.880Z,31.45
2022-10-31T14:44:03.327Z,35.05
2022-10-31T14:46:45.994Z,37.88
2022-10-31T14:49:29.149Z,29.75
2022-10-31T14:51:57.252Z,32.33
2022-10-31T14:54:36.328Z,32.17
2022-10-31T14:57:18.356Z,35.78
2022-10-31T14:59:50.869Z,36.75
2022-10-31T15:02:28.168Z,30.90
2022-10-31T15:04:56.721Z,39.25
2022-10-31T15:07:26.912Z,33.40
2022-10-31T15:10:04.135Z,31.15
2022-10-31T15:12:39.221Z,33.97
2022-10-31T15:15:14.834Z,37.65
2022-10-31T15:17:50.396Z,43.83
2022-10-31T15:20:37.655Z,36.38
2022-10-31T15:23:05.030Z,41.20
2022-10-31T15:25:36.326Z,41.30
2022-10-31T15:28:15.248Z,40.60
2022-10-31T15:30:53.333Z,51.22
2022-10-31T15:33:27.569Z,39.63
2022-10-31T15:36:00.927Z,42.95
2022-10-31T15:38:29.708Z,49.03
2022-10-31T15:41:20.833Z,41.60
2022-10-31T15:43:48.997Z,39.38
2022-10-31T15:46:16.284Z,40.63
2022-10-31T15:48:48.344Z,35.80
2022-10-31T15:51:16.353Z,43.60
2022-10-31T15:53:49.361Z,36.75
2022-10-31T15:56:29.593Z,37.10
2022-10-31T15:58:59.184Z,44.70
2022-10-31T16:01:32.506Z,36.03
2022-10-31T16:04:04.864Z,30.00
2022-10-31T16:06:34.765Z,39.78
2022-10-31T16:09:02.727Z,33.85
2022-10-31T16:11:40.766Z,39.03
2022-10-31T16:14:11.340Z,35.22
2022-10-31T16:16:53.965Z,35.53
2022-10-31T16:19:34.351Z,36.42
2022-10-31T16:22:21.260Z,31.05
2022-10-31T16:24:54.513Z,31.15
2022-10-31T16:27:27.076Z,35.63
2022-10-31T16:29:54.602Z,37.25
2022-10-31T16:32:34.233Z,37.45
2022-10-31T16:35:13.786Z,41.75
2022-10-31T16:37:44.886Z,40.30
2022-10-31T16:40:16.874Z,41.72
2022-10-31T16:42:45.540Z,33.58
2022-10-31T16:45:24.516Z,37.17
2022-10-31T16:47:52.659Z,45.25
2022-10-31T16:50:28.409Z,46.15
2022-10-31T16:55:53.142Z,50.03
2022-10-31T16:58:27.461Z,44.67
2022-10-31T17:00:55.169Z,45.97
2022-10-31T17:03:22.998Z,43.55
2022-10-31T17:05:50.641Z,46.38
2022-10-31T17:08:18.164Z,46.00
2022-10-31T17:10:47.517Z,50.38
2022-10-31T17:13:23.892Z,52.80
2022-10-31T17:15:53.915Z,44.95
2022-10-31T17:18:27.154Z,40.72
2022-10-31T17:21:06.550Z,42.63
2022-10-31T17:23:34.472Z,41.75
2022-10-31T17:26:01.979Z,42.53
2022-10-31T17:28:29.210Z,57.95
2022-10-31T17:30:59.511Z,39.80
2022-10-31T17:33:27.074Z,58.40
2022-10-31T17:35:54.323Z,38.72
2022-10-31T17:38:21.713Z,39.15
2022-10-31T17:43:21.329Z,44.38
2022-10-31T17:45:48.650Z,42.45
2022-10-31T17:48:15.838Z,48.08
2022-10-31T17:50:42.952Z,43.08
2022-10-31T17:53:10.122Z,43.53
2022-10-31T17:55:37.792Z,43.70
2022-10-31T17:58:07.858Z,43.90
2022-10-31T18:00:37.302Z,41.55
2022-10-31T18:03:04.831Z,55.17
2022-10-31T18:05:32.755Z,223.82
2022-10-31T18:08:03.689Z,67.20
2022-10-31T18:10:32.252Z,54.10
2022-10-31T18:12:59.748Z,57.47
2022-10-31T18:15:26.975Z,48.40
2022-10-31T18:17:54.340Z,46.05
2022-10-31T18:20:21.388Z,38.67
2022-10-31T18:22:48.870Z,52.95
2022-10-31T18:25:16.001Z,49.35
2022-10-31T18:27:43.310Z,59.67
2022-10-31T18:30:11.072Z,55.15
2022-10-31T18:32:38.318Z,53.15
2022-10-31T18:35:05.788Z,49.88
2022-10-31T18:37:33.095Z,46.17
2022-10-31T18:40:00.205Z,50.13
2022-10-31T18:42:27.644Z,47.75
2022-10-31T18:44:54.695Z,47.85
2022-10-31T18:47:22.355Z,46.00
2022-10-31T18:49:49.343Z,42.53
2022-10-31T18:52:16.746Z,52.47
2022-10-31T18:54:45.198Z,44.72
2022-10-31T18:57:12.425Z,44.22
2022-10-31T18:59:40.027Z,39.53
2022-10-31T19:02:07.580Z,55.22
2022-10-31T19:04:34.909Z,50.17
2022-10-31T19:07:02.484Z,44.53
2022-10-31T19:09:31.261Z,48.72
2022-10-31T19:11:58.809Z,57.83
2022-10-31T19:14:26.529Z,47.58
2022-10-31T19:16:54.500Z,53.70
2022-10-31T19:19:23.446Z,41.15
2022-10-31T19:21:51.004Z,52.92
2022-10-31T19:24:18.254Z,45.42
2022-10-31T19:26:45.758Z,49.75
2022-10-31T19:29:13.112Z,45.75
2022-10-31T19:31:40.266Z,54.88
2022-10-31T19:34:07.851Z,47.13
2022-10-31T19:36:36.795Z,52.83
2022-10-31T19:39:04.398Z,52.85
2022-10-31T19:41:32.091Z,50.33
2022-10-31T19:44:01.244Z,47.03
2022-10-31T19:46:58.447Z,48.20
2022-10-31T19:49:15.913Z,57.17
2022-10-31T19:51:43.252Z,58.60
2022-10-31T19:54:12.198Z,52.78
2022-10-31T19:56:39.820Z,52.30
2022-10-31T19:59:07.403Z,49.88
2022-10-31T20:01:37.380Z,51.30
2022-10-31T20:04:04.817Z,53.45
2022-10-31T20:06:37.672Z,50.38
2022-10-31T20:09:11.023Z,46.72
2022-10-31T20:11:39.234Z,51.42
2022-10-31T20:14:07.613Z,47.47
2022-10-31T20:16:35.014Z,52.40
2022-10-31T20:19:02.506Z,49.88
2022-10-31T20:21:32.429Z,56.92
2022-10-31T20:24:02.036Z,59.30
2022-10-31T20:26:31.210Z,53.28
2022-10-31T20:29:00.138Z,49.08
2022-10-31T20:31:32.047Z,54.42
2022-10-31T20:33:59.596Z,55.50
2022-10-31T20:36:29.055Z,48.70
2022-10-31T20:38:56.420Z,62.63
2022-10-31T20:41:23.661Z,59.83
2022-10-31T20:43:51.226Z,58.72
2022-10-31T20:46:24.976Z,71.03
2022-10-31T20:48:52.787Z,65.28
2022-10-31T20:51:22.947Z,60.95
2022-10-31T20:53:51.932Z,65.30
2022-10-31T20:56:21.184Z,73.68
2022-10-31T20:58:49.688Z,59.58
2022-10-31T21:01:25.587Z,58.53
2022-10-31T21:03:53.483Z,66.68
2022-10-31T21:06:23.513Z,64.13
2022-10-31T21:08:52.407Z,79.45
2022-10-31T21:11:22.906Z,69.40
2022-10-31T21:13:50.798Z,82.78
2022-10-31T21:16:21.232Z,70.30
2022-10-31T21:18:49.577Z,70.85
2022-10-31T21:21:32.201Z,77.45
2022-10-31T21:24:14.099Z,81.68
2022-10-31T21:26:46.823Z,78.47
2022-10-31T21:29:15.103Z,72.00
2022-10-31T21:31:43.135Z,83.20
2022-10-31T21:34:11.348Z,75.25
2022-10-31T21:36:38.971Z,82.35
2022-10-31T21:39:10.048Z,78.80
2022-10-31T21:41:37.387Z,85.03
2022-10-31T21:44:05.087Z,66.07
2022-10-31T21:46:33.922Z,81.20
2022-10-31T21:49:04.030Z,68.85
2022-10-31T21:51:33.638Z,78.30
2022-10-31T21:54:19.813Z,69.28
2022-10-31T21:56:47.167Z,74.70
2022-10-31T21:59:14.748Z,70.20
2022-10-31T22:01:42.324Z,81.10
2022-10-31T22:04:10.234Z,68.05
2022-10-31T22:06:38.007Z,64.70
2022-10-31T22:09:07.718Z,68.97
2022-10-31T22:11:35.357Z,63.13
2022-10-31T22:14:03.589Z,65.38
2022-10-31T22:16:31.316Z,58.65
2022-10-31T22:19:00.635Z,66.03
2022-10-31T22:21:29.186Z,62.75
2022-10-31T22:24:01.812Z,66.93
2022-10-31T22:26:32.877Z,57.80
2022-10-31T22:29:02.648Z,62.22
2022-10-31T22:31:31.352Z,57.60
2022-10-31T22:33:59.793Z,51.72
2022-10-31T22:36:28.791Z,58.95
2022-10-31T22:38:56.863Z,60.53
2022-10-31T22:41:27.296Z,57.10
2022-10-31T22:43:55.822Z,67.25
2022-10-31T22:46:25.985Z,65.25
2022-10-31T22:48:57.084Z,59.28
2022-10-31T22:51:26.972Z,66.75
2022-10-31T22:53:57.808Z,58.83
2022-10-31T22:56:28.540Z,62.75
2022-10-31T22:58:56.561Z,55.85
2022-10-31T23:01:26.734Z,65.15
2022-10-31T23:03:54.356Z,61.03
2022-10-31T23:06:23.719Z,66.13
2022-10-31T23:08:52.113Z,70.65
2022-10-31T23:11:22.427Z,71.68
2022-10-31T23:14:14.237Z,73.40
2022-10-31T23:16:53.852Z,72.57
2022-10-31T23:19:29.617Z,74.15
2022-10-31T23:22:03.172Z,74.00
2022-10-31T23:24:35.245Z,68.68
2022-10-31T23:27:11.999Z,74.95
2022-10-31T23:29:57.676Z,79.68
2022-10-31T23:32:28.207Z,77.03
2022-10-31T23:35:21.611Z,77.38
2022-10-31T23:37:49.421Z,67.22
2022-10-31T23:40:16.931Z,87.47
2022-10-31T23:42:44.982Z,87.30
2022-10-31T23:45:12.107Z,75.90
2022-10-31T23:47:43.193Z,81.57
2022-10-31T23:50:10.964Z,99.10
2022-10-31T23:52:38.180Z,80.35
2022-10-31T23:55:05.968Z,81.05
2022-10-31T23:57:33.059Z,85.47
